createdAt,value
2023-04-21T00:00:07.648Z,1023.86
2023-04-21T00:01:07.662Z,1023.85
2023-04-21T00:02:07.690Z,1023.86
2023-04-21T00:03:07.860Z,1023.84
2023-04-21T00:04:07.859Z,1023.86
2023-04-21T00:05:07.971Z,1023.89
2023-04-21T00:06:07.661Z,1023.85
2023-04-21T00:07:07.662Z,1023.85
2023-04-21T00:08:07.658Z,1023.82
2023-04-21T00:09:07.668Z,1023.86
2023-04-21T00:10:07.706Z,1023.83
2023-04-21T00:11:07.677Z,1023.83
2023-04-21T00:12:07.680Z,1023.85
2023-04-21T00:13:07.674Z,1023.82
2023-04-21T00:14:07.679Z,1023.84
2023-04-21T00:15:07.707Z,1023.86
2023-04-21T00:16:07.732Z,1023.84
2023-04-21T00:17:07.677Z,1023.82
2023-04-21T00:18:07.769Z,1023.85
2023-04-21T00:19:07.724Z,1023.83
2023-04-21T00:20:07.682Z,1023.84
2023-04-21T00:21:07.680Z,1023.84
2023-04-21T00:22:07.837Z,1023.87
2023-04-21T00:23:07.683Z,1023.85
2023-04-21T00:24:07.692Z,1023.84
2023-04-21T00:25:07.690Z,1023.89
2023-04-21T00:26:07.694Z,1023.84
2023-04-21T00:27:07.696Z,1023.86
2023-04-21T00:28:07.695Z,1023.84
2023-04-21T00:29:07.716Z,1023.84
2023-04-21T00:30:07.699Z,1023.85
2023-04-21T00:31:07.857Z,1023.82
2023-04-21T00:32:07.714Z,1023.86
2023-04-21T00:33:07.703Z,1023.83
2023-04-21T00:34:07.708Z,1023.83
2023-04-21T00:35:07.711Z,1023.84
2023-04-21T00:36:07.712Z,1023.84
2023-04-21T00:37:07.723Z,1023.83
2023-04-21T00:38:07.724Z,1023.81
2023-04-21T00:39:07.717Z,1023.85
2023-04-21T00:40:07.717Z,1023.82
2023-04-21T00:41:07.726Z,1023.85
2023-04-21T00:42:07.719Z,1023.83
2023-04-21T00:43:07.774Z,1023.84
2023-04-21T00:44:07.750Z,1023.82
2023-04-21T00:45:07.731Z,1023.82
2023-04-21T00:46:07.733Z,1023.84
2023-04-21T00:47:07.784Z,1023.83
2023-04-21T00:48:07.828Z,1023.83
2023-04-21T00:49:07.743Z,1023.86
2023-04-21T00:50:07.750Z,1023.82
2023-04-21T00:51:07.741Z,1023.82
2023-04-21T00:52:07.750Z,1023.82
2023-04-21T00:53:07.757Z,1023.82
2023-04-21T00:54:07.759Z,1023.79
2023-04-21T00:55:07.748Z,1023.77
2023-04-21T00:56:07.751Z,1023.77
2023-04-21T00:57:07.756Z,1023.80
2023-04-21T00:58:07.759Z,1023.80
2023-04-21T00:59:07.763Z,1023.75
2023-04-21T01:00:07.764Z,1023.84
2023-04-21T01:01:07.795Z,1023.76
2023-04-21T01:02:07.945Z,1023.81
2023-04-21T01:03:08.110Z,1023.76
2023-04-21T01:04:07.945Z,1023.77
2023-04-21T01:05:07.773Z,1023.78
2023-04-21T01:06:07.771Z,1023.75
2023-04-21T01:07:07.799Z,1023.75
2023-04-21T01:08:07.784Z,1023.74
2023-04-21T01:09:07.775Z,1023.75
2023-04-21T01:10:07.793Z,1023.74
2023-04-21T01:11:07.778Z,1023.73
2023-04-21T01:12:07.789Z,1023.75
2023-04-21T01:13:07.782Z,1023.74
2023-04-21T01:14:07.789Z,1023.73
2023-04-21T01:15:07.793Z,1023.71
2023-04-21T01:16:07.802Z,1023.68
2023-04-21T01:17:07.915Z,1023.69
2023-04-21T01:18:07.825Z,1023.67
2023-04-21T01:19:07.856Z,1023.60
2023-04-21T01:20:07.803Z,1023.63
2023-04-21T01:21:07.803Z,1023.60
2023-04-21T01:22:07.810Z,1023.65
2023-04-21T01:23:07.837Z,1023.60
2023-04-21T01:24:07.823Z,1023.54
2023-04-21T01:25:07.807Z,1023.58
2023-04-21T01:26:07.811Z,1023.58
2023-04-21T01:27:07.813Z,1023.58
2023-04-21T01:28:07.816Z,1023.56
2023-04-21T01:29:07.824Z,1023.61
2023-04-21T01:30:07.830Z,1023.56
2023-04-21T01:31:07.817Z,1023.57
2023-04-21T01:32:07.981Z,1023.57
2023-04-21T01:33:07.870Z,1023.58
2023-04-21T01:34:07.830Z,1023.56
2023-04-21T01:35:07.869Z,1023.60
2023-04-21T01:36:07.836Z,1023.57
2023-04-21T01:37:07.838Z,1023.54
2023-04-21T01:38:07.845Z,1023.54
2023-04-21T01:39:07.840Z,1023.56
2023-04-21T01:40:07.837Z,1023.55
2023-04-21T01:41:07.842Z,1023.51
2023-04-21T01:42:07.845Z,1023.49
2023-04-21T01:43:07.839Z,1023.48
2023-04-21T01:44:07.852Z,1023.46
2023-04-21T01:45:07.863Z,1023.50
2023-04-21T01:46:07.980Z,1023.48
2023-04-21T01:47:07.856Z,1023.45
2023-04-21T01:48:07.895Z,1023.44
2023-04-21T01:49:07.874Z,1023.48
2023-04-21T01:50:07.870Z,1023.44
2023-04-21T01:51:07.911Z,1023.48
2023-04-21T01:52:07.870Z,1023.43
2023-04-21T01:53:07.873Z,1023.47
2023-04-21T01:54:07.864Z,1023.46
2023-04-21T01:55:07.893Z,1023.47
2023-04-21T01:56:07.869Z,1023.45
2023-04-21T01:57:08.002Z,1023.42
2023-04-21T01:58:07.876Z,1023.44
2023-04-21T01:59:07.872Z,1023.44
2023-04-21T02:00:07.884Z,1023.50
2023-04-21T02:01:07.950Z,1023.43
2023-04-21T02:02:08.037Z,1023.42
2023-04-21T02:03:08.089Z,1023.44
2023-04-21T02:04:08.108Z,1023.43
2023-04-21T02:05:07.893Z,1023.45
2023-04-21T02:06:07.893Z,1023.41
2023-04-21T02:07:07.915Z,1023.40
2023-04-21T02:08:07.904Z,1023.39
2023-04-21T02:09:07.915Z,1023.39
2023-04-21T02:10:07.894Z,1023.38
2023-04-21T02:11:07.892Z,1023.34
2023-04-21T02:12:07.910Z,1023.32
2023-04-21T02:13:07.904Z,1023.32
2023-04-21T02:14:07.913Z,1023.31
2023-04-21T02:15:07.910Z,1023.31
2023-04-21T02:16:13.794Z,1023.35
2023-04-21T02:17:07.911Z,1023.31
2023-04-21T02:18:07.972Z,1023.31
2023-04-21T02:19:07.912Z,1023.31
2023-04-21T02:20:07.913Z,1023.30
2023-04-21T02:21:07.928Z,1023.30
2023-04-21T02:22:07.908Z,1023.30
2023-04-21T02:23:07.937Z,1023.28
2023-04-21T02:24:07.914Z,1023.29
2023-04-21T02:25:07.919Z,1023.29
2023-04-21T02:26:07.939Z,1023.24
2023-04-21T02:27:07.931Z,1023.25
2023-04-21T02:28:07.933Z,1023.25
2023-04-21T02:29:07.946Z,1023.23
2023-04-21T02:30:07.953Z,1023.21
2023-04-21T02:31:07.944Z,1023.22
2023-04-21T02:33:07.995Z,1023.26
2023-04-21T02:34:07.938Z,1023.21
2023-04-21T02:35:07.952Z,1023.21
2023-04-21T02:36:07.953Z,1023.23
2023-04-21T02:37:07.946Z,1023.26
2023-04-21T02:38:07.947Z,1023.23
2023-04-21T02:39:07.966Z,1023.21
2023-04-21T02:40:07.963Z,1023.20
2023-04-21T02:41:07.951Z,1023.20
2023-04-21T02:42:07.959Z,1023.18
2023-04-21T02:43:07.951Z,1023.18
2023-04-21T02:44:07.961Z,1023.18
2023-04-21T02:45:07.958Z,1023.21
2023-04-21T02:46:08.109Z,1023.23
2023-04-21T02:47:08.265Z,1023.21
2023-04-21T02:48:07.973Z,1023.20
2023-04-21T02:49:07.990Z,1023.19
2023-04-21T02:50:07.966Z,1023.18
2023-04-21T02:51:07.968Z,1023.16
2023-04-21T02:52:07.968Z,1023.15
2023-04-21T02:53:07.978Z,1023.16
2023-04-21T02:54:08.006Z,1023.14
2023-04-21T02:55:08.004Z,1023.19
2023-04-21T02:56:07.984Z,1023.17
2023-04-21T02:57:07.993Z,1023.16
2023-04-21T02:58:07.980Z,1023.15
2023-04-21T02:59:07.986Z,1023.15
2023-04-21T03:00:07.999Z,1023.17
2023-04-21T03:01:08.009Z,1023.16
2023-04-21T03:02:08.058Z,1023.15
2023-04-21T03:03:08.432Z,1023.17
2023-04-21T03:04:08.096Z,1023.15
2023-04-21T03:05:07.998Z,1023.13
2023-04-21T03:06:07.995Z,1023.15
2023-04-21T03:07:07.997Z,1023.15
2023-04-21T03:08:08.030Z,1023.14
2023-04-21T03:09:08.004Z,1023.14
2023-04-21T03:10:07.995Z,1023.13
2023-04-21T03:11:08.025Z,1023.14
2023-04-21T03:12:08.009Z,1023.16
2023-04-21T03:13:08.317Z,1023.13
2023-04-21T03:14:08.004Z,1023.14
2023-04-21T03:15:08.011Z,1023.14
2023-04-21T03:16:08.039Z,1023.18
2023-04-21T03:17:08.029Z,1023.18
2023-04-21T03:18:08.044Z,1023.15
2023-04-21T03:19:08.166Z,1023.16
2023-04-21T03:20:08.044Z,1023.17
2023-04-21T03:21:08.021Z,1023.21
2023-04-21T03:22:08.035Z,1023.22
2023-04-21T03:23:08.027Z,1023.25
2023-04-21T03:24:08.030Z,1023.22
2023-04-21T03:25:08.075Z,1023.24
2023-04-21T03:26:08.030Z,1023.22
2023-04-21T03:27:10.422Z,1023.23
2023-04-21T03:28:08.043Z,1023.22
2023-04-21T03:29:08.040Z,1023.18
2023-04-21T03:30:08.042Z,1023.18
2023-04-21T03:31:08.050Z,1023.14
2023-04-21T03:32:08.076Z,1023.19
2023-04-21T03:33:08.115Z,1023.17
2023-04-21T03:34:08.044Z,1023.18
2023-04-21T03:35:08.202Z,1023.18
2023-04-21T03:36:08.073Z,1023.14
2023-04-21T03:37:08.067Z,1023.16
2023-04-21T03:38:08.052Z,1023.13
2023-04-21T03:39:19.319Z,1023.10
2023-04-21T03:40:08.054Z,1023.10
2023-04-21T03:41:08.064Z,1023.16
2023-04-21T03:42:08.057Z,1023.08
2023-04-21T03:43:08.087Z,1023.10
2023-04-21T03:44:08.067Z,1023.11
2023-04-21T03:45:08.063Z,1023.10
2023-04-21T03:46:08.171Z,1023.12
2023-04-21T03:47:08.075Z,1023.10
2023-04-21T03:48:08.099Z,1023.10
2023-04-21T03:49:08.069Z,1023.09
2023-04-21T03:50:08.086Z,1023.09
2023-04-21T03:51:08.085Z,1023.10
2023-04-21T03:52:08.095Z,1023.11
2023-04-21T03:53:08.078Z,1023.09
2023-04-21T03:54:08.083Z,1023.10
2023-04-21T03:55:08.085Z,1023.10
2023-04-21T03:56:08.085Z,1023.10
2023-04-21T03:57:08.083Z,1023.09
2023-04-21T03:58:08.096Z,1023.07
2023-04-21T03:59:08.124Z,1023.11
2023-04-21T04:00:08.094Z,1023.10
2023-04-21T04:01:08.090Z,1023.15
2023-04-21T04:02:08.246Z,1023.10
2023-04-21T04:03:08.210Z,1023.14
2023-04-21T04:04:08.333Z,1023.15
2023-04-21T04:05:08.169Z,1023.13
2023-04-21T04:06:08.102Z,1023.19
2023-04-21T04:07:08.120Z,1023.13
2023-04-21T04:08:08.105Z,1023.14
2023-04-21T04:09:08.110Z,1023.14
2023-04-21T04:10:08.102Z,1023.14
2023-04-21T04:11:08.123Z,1023.12
2023-04-21T04:12:09.463Z,1023.10
2023-04-21T04:13:08.115Z,1023.12
2023-04-21T04:14:08.116Z,1023.14
2023-04-21T04:15:08.147Z,1023.10
2023-04-21T04:16:08.219Z,1023.05
2023-04-21T04:17:08.124Z,1023.03
2023-04-21T04:18:08.181Z,1023.01
2023-04-21T04:19:08.143Z,1023.02
2023-04-21T04:20:08.129Z,1023.05
2023-04-21T04:21:08.135Z,1023.03
2023-04-21T04:22:08.126Z,1023.05
2023-04-21T04:23:08.139Z,1023.02
2023-04-21T04:24:08.135Z,1023.04
2023-04-21T04:25:08.134Z,1023.04
2023-04-21T04:26:08.136Z,1023.05
2023-04-21T04:27:08.140Z,1023.06
2023-04-21T04:28:08.139Z,1023.02
2023-04-21T04:29:08.142Z,1023.03
2023-04-21T04:30:08.147Z,1023.00
2023-04-21T04:31:08.205Z,1023.03
2023-04-21T04:32:08.148Z,1023.04
2023-04-21T04:33:08.200Z,1023.07
2023-04-21T04:34:08.158Z,1023.07
2023-04-21T04:35:08.190Z,1023.07
2023-04-21T04:36:08.162Z,1023.07
2023-04-21T04:37:08.185Z,1023.02
2023-04-21T04:38:08.157Z,1023.08
2023-04-21T04:39:09.455Z,1023.08
2023-04-21T04:40:08.161Z,1023.08
2023-04-21T04:41:08.162Z,1023.14
2023-04-21T04:42:08.168Z,1023.09
2023-04-21T04:43:08.167Z,1023.09
2023-04-21T04:44:08.169Z,1023.11
2023-04-21T04:45:08.172Z,1023.10
2023-04-21T04:46:08.202Z,1023.12
2023-04-21T04:47:08.234Z,1023.11
2023-04-21T04:48:08.178Z,1023.08
2023-04-21T04:49:08.172Z,1023.06
2023-04-21T04:50:08.185Z,1023.04
2023-04-21T04:51:08.186Z,1023.04
2023-04-21T04:52:08.341Z,1023.06
2023-04-21T04:53:08.173Z,1023.01
2023-04-21T04:54:08.184Z,1023.06
2023-04-21T04:55:08.213Z,1023.03
2023-04-21T04:56:08.202Z,1023.01
2023-04-21T04:57:08.188Z,1022.98
2023-04-21T04:58:08.188Z,1023.03
2023-04-21T04:59:08.192Z,1022.97
2023-04-21T05:00:08.200Z,1022.93
2023-04-21T05:01:08.213Z,1022.89
2023-04-21T05:02:08.334Z,1022.86
2023-04-21T05:03:08.427Z,1022.90
2023-04-21T05:04:08.417Z,1022.88
2023-04-21T05:05:08.385Z,1022.90
2023-04-21T05:06:08.212Z,1022.88
2023-04-21T05:07:08.220Z,1022.86
2023-04-21T05:08:08.210Z,1022.84
2023-04-21T05:09:08.210Z,1022.86
2023-04-21T05:10:08.214Z,1022.86
2023-04-21T05:11:08.215Z,1022.87
2023-04-21T05:12:08.271Z,1022.82
2023-04-21T05:13:08.225Z,1022.84
2023-04-21T05:14:08.220Z,1022.85
2023-04-21T05:15:08.221Z,1022.86
2023-04-21T05:16:08.244Z,1022.83
2023-04-21T05:17:08.232Z,1022.86
2023-04-21T05:18:08.237Z,1022.83
2023-04-21T05:19:08.252Z,1022.84
2023-04-21T05:20:08.250Z,1022.82
2023-04-21T05:21:08.255Z,1022.77
2023-04-21T05:22:08.235Z,1022.74
2023-04-21T05:23:08.240Z,1022.75
2023-04-21T05:24:08.234Z,1022.76
2023-04-21T05:25:08.235Z,1022.74
2023-04-21T05:26:08.243Z,1022.69
2023-04-21T05:27:08.260Z,1022.71
2023-04-21T05:28:08.241Z,1022.65
2023-04-21T05:29:08.251Z,1022.65
2023-04-21T05:30:08.250Z,1022.66
2023-04-21T05:31:08.262Z,1022.62
2023-04-21T05:32:08.355Z,1022.62
2023-04-21T05:33:08.261Z,1022.61
2023-04-21T05:34:08.254Z,1022.58
2023-04-21T05:35:08.293Z,1022.57
2023-04-21T05:36:08.268Z,1022.58
2023-04-21T05:37:08.258Z,1022.55
2023-04-21T05:38:08.259Z,1022.54
2023-04-21T05:39:08.260Z,1022.54
2023-04-21T05:40:08.261Z,1022.52
2023-04-21T05:41:08.260Z,1022.55
2023-04-21T05:42:08.265Z,1022.54
2023-04-21T05:43:08.268Z,1022.49
2023-04-21T05:44:08.271Z,1022.53
2023-04-21T05:45:08.269Z,1022.50
2023-04-21T05:46:08.345Z,1022.51
2023-04-21T05:47:08.275Z,1022.50
2023-04-21T05:48:08.429Z,1022.49
2023-04-21T05:49:08.280Z,1022.50
2023-04-21T05:50:08.282Z,1022.46
2023-04-21T05:51:08.308Z,1022.47
2023-04-21T05:52:08.281Z,1022.44
2023-04-21T05:53:08.279Z,1022.44
2023-04-21T05:54:08.284Z,1022.41
2023-04-21T05:55:08.283Z,1022.41
2023-04-21T05:56:08.284Z,1022.41
2023-04-21T05:57:08.286Z,1022.39
2023-04-21T05:58:08.282Z,1022.43
2023-04-21T05:59:08.285Z,1022.36
2023-04-21T06:00:08.292Z,1022.34
2023-04-21T06:01:08.289Z,1022.35
2023-04-21T06:02:08.427Z,1022.33
2023-04-21T06:03:08.419Z,1022.32
2023-04-21T06:04:08.509Z,1022.32
2023-04-21T06:05:08.476Z,1022.28
2023-04-21T06:06:08.294Z,1022.24
2023-04-21T06:07:08.332Z,1022.29
2023-04-21T06:08:08.304Z,1022.24
2023-04-21T06:09:08.300Z,1022.22
2023-04-21T06:10:08.304Z,1022.20
2023-04-21T06:11:08.316Z,1022.17
2023-04-21T06:12:08.302Z,1022.21
2023-04-21T06:13:08.301Z,1022.23
2023-04-21T06:14:08.300Z,1022.21
2023-04-21T06:15:08.303Z,1022.18
2023-04-21T06:16:08.372Z,1022.16
2023-04-21T06:17:08.325Z,1022.16
2023-04-21T06:18:08.328Z,1022.10
2023-04-21T06:19:08.320Z,1022.10
2023-04-21T06:20:08.320Z,1022.10
2023-04-21T06:21:08.325Z,1022.10
2023-04-21T06:22:08.329Z,1022.08
2023-04-21T06:23:08.349Z,1022.06
2023-04-21T06:24:08.340Z,1022.04
2023-04-21T06:25:08.321Z,1022.04
2023-04-21T06:26:08.321Z,1022.04
2023-04-21T06:27:08.478Z,1022.01
2023-04-21T06:28:08.326Z,1022.03
2023-04-21T06:29:08.336Z,1022.05
2023-04-21T06:30:08.330Z,1022.04
2023-04-21T06:31:09.250Z,1022.05
2023-04-21T06:32:08.496Z,1022.04
2023-04-21T06:33:08.379Z,1022.00
2023-04-21T06:34:08.336Z,1022.01
2023-04-21T06:35:08.334Z,1021.99
2023-04-21T06:36:08.335Z,1021.93
2023-04-21T06:37:08.327Z,1021.91
2023-04-21T06:38:08.333Z,1021.93
2023-04-21T06:39:08.375Z,1021.91
2023-04-21T06:40:08.341Z,1021.91
2023-04-21T06:41:08.340Z,1021.92
2023-04-21T06:42:08.336Z,1021.93
2023-04-21T06:43:08.340Z,1021.90
2023-04-21T06:44:08.338Z,1021.94
2023-04-21T06:45:08.337Z,1021.89
2023-04-21T06:46:08.342Z,1021.91
2023-04-21T06:47:08.398Z,1021.91
2023-04-21T06:48:08.372Z,1021.95
2023-04-21T06:49:08.340Z,1021.90
2023-04-21T06:50:08.347Z,1021.93
2023-04-21T06:51:08.341Z,1021.88
2023-04-21T06:52:08.352Z,1021.89
2023-04-21T06:53:08.366Z,1021.88
2023-04-21T06:54:08.362Z,1021.87
2023-04-21T06:55:08.428Z,1021.84
2023-04-21T06:56:08.351Z,1021.79
2023-04-21T06:57:08.367Z,1021.83
2023-04-21T06:58:08.349Z,1021.80
2023-04-21T06:59:08.367Z,1021.78
2023-04-21T07:00:08.357Z,1021.83
2023-04-21T07:01:08.402Z,1021.78
2023-04-21T07:02:08.392Z,1021.77
2023-04-21T07:03:08.475Z,1021.75
2023-04-21T07:04:08.417Z,1021.78
2023-04-21T07:05:08.357Z,1021.76
2023-04-21T07:06:08.351Z,1021.74
2023-04-21T07:07:08.355Z,1021.75
2023-04-21T07:08:08.367Z,1021.75
2023-04-21T07:09:08.366Z,1021.75
2023-04-21T07:10:08.361Z,1021.69
2023-04-21T07:11:08.398Z,1021.73
2023-04-21T07:12:08.363Z,1021.67
2023-04-21T07:13:10.045Z,1021.69
2023-04-21T07:14:08.364Z,1021.68
2023-04-21T07:15:08.363Z,1021.65
2023-04-21T07:16:08.422Z,1021.64
2023-04-21T07:17:08.406Z,1021.60
2023-04-21T07:18:08.445Z,1021.60
2023-04-21T07:19:08.366Z,1021.59
2023-04-21T07:20:08.381Z,1021.56
2023-04-21T07:21:08.372Z,1021.59
2023-04-21T07:22:08.377Z,1021.58
2023-04-21T07:23:08.370Z,1021.55
2023-04-21T07:24:08.406Z,1021.58
2023-04-21T07:25:08.396Z,1021.56
2023-04-21T07:26:08.405Z,1021.55
2023-04-21T07:27:08.398Z,1021.53
2023-04-21T07:28:08.392Z,1021.54
2023-04-21T07:29:08.372Z,1021.54
2023-04-21T07:30:08.385Z,1021.50
2023-04-21T07:31:08.414Z,1021.48
2023-04-21T07:32:08.380Z,1021.53
2023-04-21T07:33:08.422Z,1021.51
2023-04-21T07:34:08.384Z,1021.50
2023-04-21T07:35:08.389Z,1021.50
2023-04-21T07:36:08.384Z,1021.46
2023-04-21T07:37:08.393Z,1021.41
2023-04-21T07:38:08.396Z,1021.38
2023-04-21T07:39:08.384Z,1021.42
2023-04-21T07:40:08.390Z,1021.40
2023-04-21T07:41:08.385Z,1021.36
2023-04-21T07:42:08.458Z,1021.37
2023-04-21T07:43:08.415Z,1021.31
2023-04-21T07:44:08.386Z,1021.32
2023-04-21T07:45:08.387Z,1021.32
2023-04-21T07:46:08.711Z,1021.30
2023-04-21T07:47:08.399Z,1021.31
2023-04-21T07:48:08.448Z,1021.28
2023-04-21T07:49:08.398Z,1021.30
2023-04-21T07:50:08.658Z,1021.28
2023-04-21T07:51:08.404Z,1021.29
2023-04-21T07:52:08.394Z,1021.25
2023-04-21T07:53:08.401Z,1021.26
2023-04-21T07:54:08.415Z,1021.19
2023-04-21T07:55:08.397Z,1021.19
2023-04-21T07:56:08.402Z,1021.18
2023-04-21T07:57:08.396Z,1021.17
2023-04-21T07:58:08.402Z,1021.19
2023-04-21T07:59:08.422Z,1021.18
2023-04-21T08:00:08.432Z,1021.20
2023-04-21T08:01:08.412Z,1021.16
2023-04-21T08:02:08.547Z,1021.17
2023-04-21T08:03:08.672Z,1021.13
2023-04-21T08:04:08.535Z,1021.13
2023-04-21T08:05:08.722Z,1021.09
2023-04-21T08:06:08.509Z,1021.07
2023-04-21T08:07:08.917Z,1021.08
2023-04-21T08:08:08.425Z,1021.04
2023-04-21T08:09:08.435Z,1021.08
2023-04-21T08:10:08.407Z,1021.04
2023-04-21T08:11:10.767Z,1021.07
2023-04-21T08:12:08.412Z,1021.06
2023-04-21T08:13:08.438Z,1021.03
2023-04-21T08:14:08.464Z,1020.95
2023-04-21T08:15:08.689Z,1020.99
2023-04-21T08:16:08.449Z,1021.01
2023-04-21T08:17:08.760Z,1020.96
2023-04-21T08:18:08.508Z,1020.93
2023-04-21T08:19:08.420Z,1020.94
2023-04-21T08:20:08.419Z,1020.92
2023-04-21T08:21:08.435Z,1020.91
2023-04-21T08:22:08.453Z,1020.85
2023-04-21T08:23:08.512Z,1020.88
2023-04-21T08:24:08.456Z,1020.86
2023-04-21T08:25:08.424Z,1020.86
2023-04-21T08:26:08.432Z,1020.86
2023-04-21T08:27:08.435Z,1020.82
2023-04-21T08:28:08.448Z,1020.79
2023-04-21T08:29:08.448Z,1020.78
2023-04-21T08:30:08.432Z,1020.79
2023-04-21T08:31:08.487Z,1020.74
2023-04-21T08:32:08.849Z,1020.77
2023-04-21T08:33:08.508Z,1020.77
2023-04-21T08:34:08.458Z,1020.76
2023-04-21T08:35:08.437Z,1020.72
2023-04-21T08:36:18.139Z,1020.69
2023-04-21T08:37:08.437Z,1020.73
2023-04-21T08:38:08.440Z,1020.63
2023-04-21T08:39:08.448Z,1020.63
2023-04-21T08:40:08.437Z,1020.67
2023-04-21T08:41:08.439Z,1020.66
2023-04-21T08:42:08.439Z,1020.62
2023-04-21T08:43:08.443Z,1020.53
2023-04-21T08:44:08.445Z,1020.51
2023-04-21T08:45:08.451Z,1020.53
2023-04-21T08:46:08.515Z,1020.54
2023-04-21T08:47:08.467Z,1020.58
2023-04-21T08:48:08.472Z,1020.56
2023-04-21T08:49:08.449Z,1020.58
2023-04-21T08:50:08.449Z,1020.59
2023-04-21T08:51:08.454Z,1020.59
2023-04-21T08:52:08.454Z,1020.57
2023-04-21T08:53:08.453Z,1020.58
2023-04-21T08:54:08.459Z,1020.54
2023-04-21T08:55:08.461Z,1020.53
2023-04-21T08:56:11.433Z,1020.55
2023-04-21T08:57:15.087Z,1020.54
2023-04-21T08:58:08.469Z,1020.55
2023-04-21T08:59:08.461Z,1020.52
2023-04-21T09:00:08.510Z,1020.53
2023-04-21T09:01:08.575Z,1020.52
2023-04-21T09:02:08.552Z,1020.47
2023-04-21T09:03:16.175Z,1020.44
2023-04-21T09:04:08.666Z,1020.40
2023-04-21T09:05:08.741Z,1020.43
2023-04-21T09:06:09.401Z,1020.43
2023-04-21T09:07:08.533Z,1020.41
2023-04-21T09:08:08.482Z,1020.40
2023-04-21T09:09:08.475Z,1020.41
2023-04-21T09:10:08.490Z,1020.39
2023-04-21T09:11:08.491Z,1020.34
2023-04-21T09:12:08.481Z,1020.35
2023-04-21T09:13:08.484Z,1020.37
2023-04-21T09:14:08.486Z,1020.36
2023-04-21T09:15:08.483Z,1020.30
2023-04-21T09:16:08.830Z,1020.34
2023-04-21T09:17:08.501Z,1020.30
2023-04-21T09:18:08.514Z,1020.34
2023-04-21T09:19:08.579Z,1020.28
2023-04-21T09:20:08.496Z,1020.30
2023-04-21T09:21:08.495Z,1020.28
2023-04-21T09:22:08.494Z,1020.32
2023-04-21T09:23:08.497Z,1020.30
2023-04-21T09:24:08.499Z,1020.32
2023-04-21T09:25:08.515Z,1020.31
2023-04-21T09:26:08.500Z,1020.29
2023-04-21T09:27:08.504Z,1020.37
2023-04-21T09:28:08.514Z,1020.37
2023-04-21T09:29:08.522Z,1020.33
2023-04-21T09:30:08.514Z,1020.36
2023-04-21T09:31:08.547Z,1020.31
2023-04-21T09:32:10.898Z,1020.28
2023-04-21T09:33:20.133Z,1020.21
2023-04-21T09:34:08.573Z,1020.19
2023-04-21T09:35:08.550Z,1020.18
2023-04-21T09:36:08.528Z,1020.16
2023-04-21T09:37:08.536Z,1020.16
2023-04-21T09:38:08.527Z,1020.21
2023-04-21T09:40:08.531Z,1020.26
2023-04-21T09:41:08.540Z,1020.21
2023-04-21T09:42:08.535Z,1020.13
2023-04-21T09:43:08.547Z,1020.12
2023-04-21T09:44:08.574Z,1020.12
2023-04-21T09:46:08.586Z,1020.13
2023-04-21T09:47:08.564Z,1020.13
2023-04-21T09:48:08.900Z,1020.15
2023-04-21T09:49:08.605Z,1020.08
2023-04-21T09:50:12.239Z,1020.07
2023-04-21T09:52:18.773Z,1020.02
2023-04-21T09:53:08.611Z,1019.98
2023-04-21T09:54:15.573Z,1020.02
2023-04-21T09:55:08.628Z,1020.00
2023-04-21T09:56:08.626Z,1019.94
2023-04-21T09:57:08.634Z,1019.96
2023-04-21T09:58:08.638Z,1019.99
2023-04-21T09:59:08.636Z,1019.99
2023-04-21T10:00:08.653Z,1019.98
2023-04-21T10:01:08.796Z,1020.00
2023-04-21T10:02:08.955Z,1020.01
2023-04-21T10:03:08.819Z,1019.98
2023-04-21T10:04:08.866Z,1019.92
2023-04-21T10:05:08.760Z,1019.88
2023-04-21T10:06:08.833Z,1019.84
2023-04-21T10:07:08.703Z,1019.84
2023-04-21T10:08:08.681Z,1019.85
2023-04-21T10:09:08.685Z,1019.84
2023-04-21T10:10:08.708Z,1019.83
2023-04-21T10:11:08.701Z,1019.79
2023-04-21T10:12:09.739Z,1019.84
2023-04-21T10:13:08.697Z,1019.86
2023-04-21T10:14:08.724Z,1019.79
2023-04-21T10:15:08.706Z,1019.79
2023-04-21T10:16:08.807Z,1019.76
2023-04-21T10:17:08.714Z,1019.80
2023-04-21T10:18:08.721Z,1019.76
2023-04-21T10:19:08.728Z,1019.75
2023-04-21T10:20:08.740Z,1019.78
2023-04-21T10:21:08.742Z,1019.66
2023-04-21T10:22:08.749Z,1019.62
2023-04-21T10:23:08.766Z,1019.61
2023-04-21T10:24:08.740Z,1019.57
2023-04-21T10:25:08.738Z,1019.63
2023-04-21T10:26:08.749Z,1019.60
2023-04-21T10:27:08.749Z,1019.56
2023-04-21T10:28:08.756Z,1019.59
2023-04-21T10:29:08.763Z,1019.48
2023-04-21T10:30:08.765Z,1019.50
2023-04-21T10:31:08.840Z,1019.49
2023-04-21T10:32:09.594Z,1019.45
2023-04-21T10:33:08.809Z,1019.50
2023-04-21T10:34:08.781Z,1019.46
2023-04-21T10:35:08.781Z,1019.44
2023-04-21T10:36:08.779Z,1019.42
2023-04-21T10:37:08.779Z,1019.43
2023-04-21T10:38:08.790Z,1019.45
2023-04-21T10:39:08.815Z,1019.50
2023-04-21T10:40:08.793Z,1019.43
2023-04-21T10:41:08.796Z,1019.40
2023-04-21T10:42:08.805Z,1019.37
2023-04-21T10:43:08.811Z,1019.36
2023-04-21T10:44:08.803Z,1019.34
2023-04-21T10:45:08.815Z,1019.32
2023-04-21T10:46:08.822Z,1019.35
2023-04-21T10:47:08.888Z,1019.33
2023-04-21T10:48:08.894Z,1019.30
2023-04-21T10:49:08.830Z,1019.30
2023-04-21T10:50:08.821Z,1019.29
2023-04-21T10:51:08.827Z,1019.29
2023-04-21T10:52:08.828Z,1019.32
2023-04-21T10:53:08.832Z,1019.33
2023-04-21T10:54:08.842Z,1019.24
2023-04-21T10:55:08.862Z,1019.25
2023-04-21T10:56:08.840Z,1019.22
2023-04-21T10:57:08.853Z,1019.29
2023-04-21T10:58:08.846Z,1019.29
2023-04-21T10:59:08.848Z,1019.24
2023-04-21T11:00:08.852Z,1019.25
2023-04-21T11:01:08.892Z,1019.28
2023-04-21T11:02:08.913Z,1019.24
2023-04-21T11:03:09.123Z,1019.21
2023-04-21T11:04:09.020Z,1019.18
2023-04-21T11:05:08.943Z,1019.11
2023-04-21T11:06:08.882Z,1019.12
2023-04-21T11:07:08.899Z,1019.12
2023-04-21T11:08:08.878Z,1019.19
2023-04-21T11:09:08.880Z,1019.17
2023-04-21T11:10:08.886Z,1019.17
2023-04-21T11:11:08.967Z,1019.18
2023-04-21T11:12:08.882Z,1019.13
2023-04-21T11:13:08.896Z,1019.15
2023-04-21T11:14:08.888Z,1019.13
2023-04-21T11:15:08.897Z,1019.16
2023-04-21T11:16:08.968Z,1019.13
2023-04-21T11:17:08.956Z,1019.13
2023-04-21T11:18:08.968Z,1019.10
2023-04-21T11:19:08.899Z,1019.09
2023-04-21T11:20:08.898Z,1019.07
2023-04-21T11:21:08.909Z,1019.01
2023-04-21T11:22:08.914Z,1018.99
2023-04-21T11:23:08.915Z,1019.02
2023-04-21T11:24:08.917Z,1019.04
2023-04-21T11:25:08.912Z,1019.01
2023-04-21T11:26:08.916Z,1018.97
2023-04-21T11:27:08.936Z,1019.00
2023-04-21T11:28:08.915Z,1019.03
2023-04-21T11:29:08.934Z,1019.00
2023-04-21T11:30:08.926Z,1018.99
2023-04-21T11:31:08.963Z,1019.00
2023-04-21T11:32:08.937Z,1018.94
2023-04-21T11:33:08.988Z,1018.93
2023-04-21T11:34:08.932Z,1018.95
2023-04-21T11:35:08.943Z,1018.97
2023-04-21T11:36:08.939Z,1018.92
2023-04-21T11:37:08.962Z,1018.98
2023-04-21T11:38:08.950Z,1018.95
2023-04-21T11:39:08.948Z,1018.92
2023-04-21T11:40:08.953Z,1018.95
2023-04-21T11:41:08.953Z,1018.95
2023-04-21T11:42:08.958Z,1018.87
2023-04-21T11:43:08.981Z,1018.86
2023-04-21T11:44:08.969Z,1018.83
2023-04-21T11:45:08.972Z,1018.82
2023-04-21T11:46:09.017Z,1018.78
2023-04-21T11:47:09.017Z,1018.77
2023-04-21T11:48:09.036Z,1018.73
2023-04-21T11:49:08.975Z,1018.77
2023-04-21T11:50:08.982Z,1018.77
2023-04-21T11:51:08.980Z,1018.73
2023-04-21T11:52:08.980Z,1018.70
2023-04-21T11:53:08.984Z,1018.73
2023-04-21T11:54:08.986Z,1018.76
2023-04-21T11:55:08.989Z,1018.70
2023-04-21T11:56:08.994Z,1018.69
2023-04-21T11:57:09.078Z,1018.67
2023-04-21T11:58:08.994Z,1018.63
2023-04-21T11:59:09.017Z,1018.62
2023-04-21T12:00:09.005Z,1018.63
2023-04-21T12:01:09.052Z,1018.60
2023-04-21T12:02:09.075Z,1018.59
2023-04-21T12:03:09.240Z,1018.54
2023-04-21T12:04:09.165Z,1018.55
2023-04-21T12:05:09.487Z,1018.55
2023-04-21T12:06:09.103Z,1018.54
2023-04-21T12:07:09.060Z,1018.56
2023-04-21T12:08:09.015Z,1018.52
2023-04-21T12:09:09.012Z,1018.52